Time;durP1;ratioP1;P1;durP2;ratioP2;P2;SDS_P1;SDS_P2;PMS_P1;PMS_P2;Temp;Humidity;BMP_temperature;BMP_pressure;BME280_temperature;BME280_humidity;BME280_pressure;Samples;Min_cycle;Max_cycle;Signal;HPM_P1;HPM_P2
2022/08/09 00:01:47;;;;;;;8.00;4.07;;;;;;;;;;5026404;28;20057;-49
2022/08/09 00:04:24;;;;;;;6.47;4.20;;;;;;;;;;5015691;28;20449;-47
2022/08/09 00:06:54;;;;;;;6.18;3.85;;;;;;;;;;5015547;28;20046;-45
2022/08/09 00:09:22;;;;;;;4.90;3.33;;;;;;;;;;5010331;28;20042;-46
2022/08/09 00:11:51;;;;;;;6.10;3.90;;;;;;;;;;4996532;28;20072;-47
2022/08/09 00:14:31;;;;;;;6.18;3.90;;;;;;;;;;4996397;28;20137;-46
2022/08/09 00:16:59;;;;;;;5.30;3.47;;;;;;;;;;4996650;28;20054;-47
2022/08/09 00:19:29;;;;;;;4.90;3.10;;;;;;;;;;4995707;28;20466;-49
2022/08/09 00:21:57;;;;;;;5.47;3.35;;;;;;;;;;5015126;28;20153;-48
2022/08/09 00:24:24;;;;;;;6.28;3.85;;;;;;;;;;5015540;28;20057;-48
2022/08/09 00:26:52;;;;;;;6.38;3.30;;;;;;;;;;5015691;28;20454;-48
2022/08/09 00:29:21;;;;;;;7.20;3.60;;;;;;;;;;5015540;28;20521;-47
2022/08/09 00:31:48;;;;;;;6.47;4.07;;;;;;;;;;5016308;28;20046;-45
2022/08/09 00:34:16;;;;;;;5.20;3.67;;;;;;;;;;5016066;28;20050;-47
2022/08/09 00:36:46;;;;;;;6.75;4.43;;;;;;;;;;5035054;28;20053;-46
2022/08/09 00:39:15;;;;;;;9.52;5.05;;;;;;;;;;5035271;28;20081;-47
2022/08/09 00:41:45;;;;;;;5.10;3.65;;;;;;;;;;5034068;28;20386;-50
2022/08/09 00:44:14;;;;;;;6.28;3.47;;;;;;;;;;5035246;28;20063;-47
2022/08/09 00:46:56;;;;;;;5.93;3.58;;;;;;;;;;5020843;28;20049;-45
2022/08/09 00:49:26;;;;;;;7.07;3.53;;;;;;;;;;5015103;28;20053;-47
2022/08/09 00:51:54;;;;;;;9.02;3.72;;;;;;;;;;5028439;28;20108;-46
2022/08/09 00:54:22;;;;;;;4.38;3.45;;;;;;;;;;5015379;28;20050;-46
2022/08/09 00:56:51;;;;;;;5.30;3.28;;;;;;;;;;5015036;28;20401;-49
2022/08/09 00:59:21;;;;;;;5.05;3.55;;;;;;;;;;5015167;28;20042;-50
2022/08/09 01:01:52;;;;;;;6.72;3.63;;;;;;;;;;5014289;28;20754;-44
2022/08/09 01:04:27;;;;;;;5.38;3.72;;;;;;;;;;5015382;28;20057;-47
2022/08/09 01:06:57;;;;;;;5.13;3.25;;;;;;;;;;5015380;28;20057;-49
2022/08/09 01:09:30;;;;;;;6.95;3.88;;;;;;;;;;5008666;28;20042;-49
2022/08/09 01:11:59;;;;;;;6.82;4.20;;;;;;;;;;4995265;28;20069;-49
2022/08/09 01:14:29;;;;;;;5.85;3.67;;;;;;;;;;4995020;28;20050;-48
2022/08/09 01:17:02;;;;;;;5.97;3.47;;;;;;;;;;4995456;28;20061;-45
2022/08/09 01:19:40;;;;;;;8.30;4.00;;;;;;;;;;4994977;28;20455;-49
2022/08/09 01:22:40;;;;;;;6.32;3.72;;;;;;;;;;4997603;28;20046;-46
2022/08/09 01:25:27;;;;;;;4.90;3.60;;;;;;;;;;4969193;28;20061;-46
2022/08/09 01:28:06;;;;;;;5.13;3.85;;;;;;;;;;5014443;28;20107;-47
2022/08/09 01:30:34;;;;;;;5.53;3.25;;;;;;;;;;5013845;28;20049;-45
2022/08/09 01:33:04;;;;;;;5.95;3.40;;;;;;;;;;5014205;28;20152;-46
2022/08/09 01:35:39;;;;;;;7.18;4.22;;;;;;;;;;5014714;28;20108;-48
2022/08/09 01:38:14;;;;;;;6.57;3.80;;;;;;;;;;5014440;28;20462;-48
2022/08/09 01:40:44;;;;;;;8.88;4.00;;;;;;;;;;5014423;28;20050;-47
2022/08/09 01:43:18;;;;;;;6.40;3.78;;;;;;;;;;5014318;28;20168;-45
2022/08/09 01:45:45;;;;;;;7.95;4.05;;;;;;;;;;5014221;28;20229;-46
2022/08/09 01:48:14;;;;;;;6.18;4.20;;;;;;;;;;5014448;28;20132;-47
2022/08/09 01:50:50;;;;;;;5.78;4.18;;;;;;;;;;5013877;28;20133;-46
2022/08/09 01:53:19;;;;;;;7.82;5.13;;;;;;;;;;5013932;28;20168;-49
2022/08/09 01:55:48;;;;;;;5.80;4.18;;;;;;;;;;5014252;28;20054;-49
2022/08/09 01:58:17;;;;;;;6.03;4.00;;;;;;;;;;5013764;28;20046;-48
2022/08/09 02:00:45;;;;;;;7.55;4.57;;;;;;;;;;5013517;28;20061;-48
2022/08/09 02:03:21;;;;;;;6.63;4.00;;;;;;;;;;5013521;28;20061;-45
2022/08/09 02:05:57;;;;;;;7.60;4.40;;;;;;;;;;5014089;28;20069;-47
2022/08/09 02:08:26;;;;;;;6.18;3.63;;;;;;;;;;5014131;28;20050;-47
2022/08/09 02:10:57;;;;;;;7.22;4.43;;;;;;;;;;4995660;28;20042;-46
2022/08/09 02:13:31;;;;;;;7.45;3.85;;;;;;;;;;4994099;28;20061;-46
2022/08/09 02:16:02;;;;;;;7.95;4.68;;;;;;;;;;4994074;28;20057;-49
2022/08/09 02:18:38;;;;;;;6.60;4.05;;;;;;;;;;4994481;28;20058;-47
2022/08/09 02:21:09;;;;;;;6.93;3.80;;;;;;;;;;5005889;28;20360;-48
2022/08/09 02:23:50;;;;;;;7.18;4.63;;;;;;;;;;5013658;28;20057;-49
2022/08/09 02:26:26;;;;;;;8.23;4.45;;;;;;;;;;5013910;28;20054;-48
2022/08/09 02:29:11;;;;;;;5.97;4.07;;;;;;;;;;5013445;28;20506;-47
2022/08/09 02:31:41;;;;;;;8.48;4.22;;;;;;;;;;5013684;28;20068;-47
2022/08/09 02:34:13;;;;;;;6.65;4.47;;;;;;;;;;5013506;28;20060;-48
2022/08/09 02:36:49;;;;;;;6.00;4.43;;;;;;;;;;5013682;28;20061;-47
2022/08/09 02:39:19;;;;;;;7.63;4.03;;;;;;;;;;5013403;28;20081;-45
2022/08/09 02:41:50;;;;;;;7.85;4.10;;;;;;;;;;5012119;28;20116;-47
2022/08/09 02:44:28;;;;;;;6.65;4.60;;;;;;;;;;5013399;28;20049;-47
2022/08/09 02:47:06;;;;;;;6.50;4.50;;;;;;;;;;5013392;28;20119;-48
2022/08/09 02:49:33;;;;;;;8.48;5.10;;;;;;;;;;5013238;28;20375;-46
2022/08/09 02:52:03;;;;;;;7.57;4.75;;;;;;;;;;5013221;28;20045;-46
2022/08/09 02:54:33;;;;;;;7.97;4.50;;;;;;;;;;5013195;28;20054;-46
2022/08/09 02:57:05;;;;;;;6.22;4.28;;;;;;;;;;5013427;28;20045;-49
2022/08/09 02:59:37;;;;;;;6.15;4.03;;;;;;;;;;5013246;28;20065;-46
2022/08/09 03:02:07;;;;;;;5.57;3.85;;;;;;;;;;5013015;28;20152;-48
2022/08/09 03:04:35;;;;;;;6.90;4.45;;;;;;;;;;5012777;28;20054;-45
2022/08/09 03:07:12;;;;;;;8.55;4.18;;;;;;;;;;5012808;28;20450;-47
2022/08/09 03:09:39;;;;;;;7.28;3.95;;;;;;;;;;5005153;28;20051;-48
2022/08/09 03:12:07;;;;;;;7.10;4.38;;;;;;;;;;4993020;28;20459;-49
2022/08/09 03:14:48;;;;;;;8.98;4.65;;;;;;;;;;4993704;28;20054;-47
2022/08/09 03:17:18;;;;;;;8.70;4.05;;;;;;;;;;4993298;28;20454;-47
2022/08/09 03:19:49;;;;;;;7.63;4.18;;;;;;;;;;4994790;28;20042;-45
2022/08/09 03:22:18;;;;;;;8.68;4.95;;;;;;;;;;5013234;28;20137;-47
2022/08/09 03:24:45;;;;;;;7.78;4.40;;;;;;;;;;5012777;28;20054;-49
2022/08/09 03:27:14;;;;;;;6.60;4.40;;;;;;;;;;5013182;28;20054;-48
2022/08/09 03:29:44;;;;;;;7.55;4.13;;;;;;;;;;5013215;28;20058;-48
2022/08/09 03:32:14;;;;;;;6.78;4.43;;;;;;;;;;5013257;28;20068;-45
2022/08/09 03:34:41;;;;;;;6.15;3.92;;;;;;;;;;5013354;28;20265;-45
2022/08/09 03:37:09;;;;;;;9.25;4.70;;;;;;;;;;5014068;28;20072;-47
2022/08/09 03:39:37;;;;;;;8.57;4.38;;;;;;;;;;5014329;28;20050;-45
2022/08/09 03:42:05;;;;;;;8.15;4.60;;;;;;;;;;5013033;28;20129;-46
2022/08/09 03:44:35;;;;;;;7.78;4.57;;;;;;;;;;5012981;28;20053;-46
2022/08/09 03:47:05;;;;;;;6.32;4.38;;;;;;;;;;5012844;28;20082;-49
2022/08/09 03:49:33;;;;;;;9.20;4.43;;;;;;;;;;5012953;28;20050;-46
2022/08/09 03:52:01;;;;;;;8.00;4.10;;;;;;;;;;5012423;28;20144;-45
2022/08/09 03:54:30;;;;;;;7.03;4.53;;;;;;;;;;5013307;28;20543;-45
2022/08/09 03:56:59;;;;;;;8.73;4.13;;;;;;;;;;5016578;28;20462;-45
2022/08/09 03:59:27;;;;;;;9.95;4.85;;;;;;;;;;5016728;28;20061;-46
2022/08/09 04:01:56;;;;;;;8.52;4.95;;;;;;;;;;5016822;28;20057;-45
2022/08/09 04:04:30;;;;;;;7.97;4.90;;;;;;;;;;5016644;28;20049;-47
2022/08/09 04:07:00;;;;;;;8.43;4.45;;;;;;;;;;5016397;28;20061;-48
2022/08/09 04:09:30;;;;;;;9.10;4.80;;;;;;;;;;5016328;28;20074;-50
2022/08/09 04:12:13;;;;;;;6.97;4.15;;;;;;;;;;5015743;28;20133;-46
2022/08/09 04:14:43;;;;;;;6.40;4.43;;;;;;;;;;5015003;28;20085;-49
2022/08/09 04:17:13;;;;;;;6.70;4.25;;;;;;;;;;5015635;28;20498;-46
2022/08/09 04:19:45;;;;;;;7.50;4.75;;;;;;;;;;5015293;28;20050;-49
2022/08/09 04:22:15;;;;;;;6.93;4.32;;;;;;;;;;4999479;28;20057;-49
2022/08/09 04:24:43;;;;;;;7.90;5.32;;;;;;;;;;5015557;28;20124;-50
2022/08/09 04:27:12;;;;;;;8.45;4.65;;;;;;;;;;5015881;28;20046;-50
2022/08/09 04:29:39;;;;;;;7.40;4.20;;;;;;;;;;5015281;28;20465;-47
2022/08/09 04:32:08;;;;;;;6.28;4.70;;;;;;;;;;5015854;28;20072;-47
2022/08/09 04:34:36;;;;;;;8.18;4.85;;;;;;;;;;5015850;28;20089;-49
2022/08/09 04:37:18;;;;;;;7.25;4.88;;;;;;;;;;5015645;28;20049;-48
2022/08/09 04:39:46;;;;;;;8.15;4.82;;;;;;;;;;5015329;28;20466;-48
2022/08/09 04:42:15;;;;;;;7.95;4.63;;;;;;;;;;5015595;28;20073;-47
2022/08/09 04:44:43;;;;;;;9.05;4.60;;;;;;;;;;5015297;28;20484;-48
2022/08/09 04:47:12;;;;;;;6.07;3.85;;;;;;;;;;5014464;28;20046;-46
2022/08/09 04:49:40;;;;;;;8.23;4.70;;;;;;;;;;5015486;28;20050;-45
2022/08/09 04:52:14;;;;;;;7.70;4.40;;;;;;;;;;5014301;28;20050;-46
2022/08/09 04:54:42;;;;;;;6.82;4.30;;;;;;;;;;5015847;28;20053;-44
2022/08/09 04:57:08;;;;;;;8.68;4.88;;;;;;;;;;5015807;28;20064;-46
2022/08/09 04:59:38;;;;;;;7.40;3.90;;;;;;;;;;5015643;28;20053;-47
2022/08/09 05:02:08;;;;;;;7.25;4.97;;;;;;;;;;5015676;28;20085;-46
2022/08/09 05:07:18;;;;;;;8.00;4.70;;;;;;;;;;5014769;28;20053;-49
2022/08/09 05:09:49;;;;;;;6.45;4.10;;;;;;;;;;5014565;28;20070;-50
2022/08/09 05:12:18;;;;;;;7.05;4.30;;;;;;;;;;5015175;28;20065;-46
2022/08/09 05:14:46;;;;;;;9.80;4.35;;;;;;;;;;5015173;28;20058;-47
2022/08/09 05:17:14;;;;;;;6.43;4.43;;;;;;;;;;5021808;28;20052;-50
2022/08/09 05:19:44;;;;;;;5.40;3.90;;;;;;;;;;5022317;28;20089;-48
2022/08/09 05:22:12;;;;;;;6.05;4.47;;;;;;;;;;5014798;28;20038;-48
2022/08/09 05:24:41;;;;;;;7.20;4.55;;;;;;;;;;5019750;28;20058;-45
2022/08/09 05:27:11;;;;;;;5.75;4.10;;;;;;;;;;5026749;28;20049;-47
2022/08/09 05:29:40;;;;;;;7.57;4.63;;;;;;;;;;5022896;28;20049;-46
2022/08/09 05:32:09;;;;;;;6.15;4.35;;;;;;;;;;5034025;28;20085;-46
2022/08/09 05:34:37;;;;;;;8.75;4.95;;;;;;;;;;5034435;28;20053;-44
2022/08/09 05:37:05;;;;;;;6.32;4.25;;;;;;;;;;5033665;28;20045;-47
2022/08/09 05:39:34;;;;;;;8.13;4.00;;;;;;;;;;5034652;28;20046;-48
2022/08/09 05:42:18;;;;;;;5.50;3.80;;;;;;;;;;5033780;28;20081;-45
2022/08/09 05:44:48;;;;;;;5.68;3.50;;;;;;;;;;5018810;28;20050;-49
2022/08/09 05:47:17;;;;;;;6.57;4.25;;;;;;;;;;5013036;28;20585;-45
2022/08/09 05:49:46;;;;;;;6.05;4.30;;;;;;;;;;5014413;28;20106;-49
2022/08/09 05:52:15;;;;;;;9.02;3.65;;;;;;;;;;5007538;28;20474;-46
2022/08/09 05:54:46;;;;;;;10.13;4.10;;;;;;;;;;4994659;28;20054;-47
2022/08/09 05:57:28;;;;;;;6.53;3.50;;;;;;;;;;4994720;28;20054;-50
2022/08/09 05:59:58;;;;;;;6.30;3.33;;;;;;;;;;4994226;28;20619;-46
2022/08/09 06:02:28;;;;;;;8.93;3.42;;;;;;;;;;4994355;28;20447;-49
2022/08/09 06:04:57;;;;;;;7.75;2.80;;;;;;;;;;4994519;28;20069;-47
2022/08/09 06:07:25;;;;;;;5.28;2.85;;;;;;;;;;4993119;28;20070;-48
2022/08/09 06:09:54;;;;;;;7.25;3.15;;;;;;;;;;5003580;28;20061;-47
2022/08/09 06:12:36;;;;;;;4.82;2.67;;;;;;;;;;5014089;28;20077;-50
2022/08/09 06:15:04;;;;;;;6.25;2.55;;;;;;;;;;4998629;28;20093;-48
2022/08/09 06:17:31;;;;;;;5.65;3.22;;;;;;;;;;4993595;28;20057;-48
2022/08/09 06:19:59;;;;;;;3.40;2.50;;;;;;;;;;4996372;28;20057;-47
2022/08/09 06:22:26;;;;;;;4.45;2.17;;;;;;;;;;5013591;28;20064;-48
2022/08/09 06:24:53;;;;;;;5.18;2.20;;;;;;;;;;5013408;28;20058;-48
2022/08/09 06:27:22;;;;;;;6.00;2.72;;;;;;;;;;5013734;28;20057;-46
2022/08/09 06:29:57;;;;;;;7.38;2.22;;;;;;;;;;5022305;28;20136;-46
2022/08/09 06:32:27;;;;;;;5.50;2.17;;;;;;;;;;5013771;28;20081;-48
2022/08/09 06:34:55;;;;;;;3.47;1.95;;;;;;;;;;5018189;28;20053;-48
2022/08/09 06:37:23;;;;;;;5.10;2.17;;;;;;;;;;5032993;28;20068;-48
2022/08/09 06:39:50;;;;;;;3.55;2.38;;;;;;;;;;5027375;28;20054;-49
2022/08/09 06:42:20;;;;;;;2.88;2.05;;;;;;;;;;5013436;28;20142;-46
2022/08/09 06:44:47;;;;;;;4.45;2.17;;;;;;;;;;5026170;28;20085;-47
2022/08/09 06:47:26;;;;;;;3.80;1.83;;;;;;;;;;5014510;28;20057;-49
2022/08/09 06:49:55;;;;;;;2.67;2.10;;;;;;;;;;5013432;28;20057;-50
2022/08/09 06:52:25;;;;;;;2.28;1.70;;;;;;;;;;5013270;28;20038;-45
2022/08/09 06:54:53;;;;;;;5.05;2.03;;;;;;;;;;5013112;28;20056;-49
2022/08/09 06:57:23;;;;;;;2.40;1.42;;;;;;;;;;5012894;28;20065;-50
2022/08/09 06:59:51;;;;;;;3.13;2.05;;;;;;;;;;5012926;28;20054;-49
2022/08/09 07:02:26;;;;;;;2.65;1.70;;;;;;;;;;5030746;28;20053;-47
2022/08/09 07:04:53;;;;;;;3.58;1.70;;;;;;;;;;5032857;28;20124;-49
2022/08/09 07:07:21;;;;;;;4.45;1.92;;;;;;;;;;5032344;28;20397;-48
2022/08/09 07:09:49;;;;;;;3.85;2.10;;;;;;;;;;5023348;28;20045;-48
2022/08/09 07:12:16;;;;;;;3.28;1.52;;;;;;;;;;5013018;28;20662;-48
2022/08/09 07:14:47;;;;;;;7.35;1.80;;;;;;;;;;5012829;28;20065;-48
2022/08/09 07:17:17;;;;;;;4.32;1.67;;;;;;;;;;5013150;28;20049;-49
2022/08/09 07:19:50;;;;;;;3.70;1.70;;;;;;;;;;5011805;28;20054;-50
2022/08/09 07:25:00;;;;;;;2.83;1.75;;;;;;;;;;5012254;28;20470;-47
2022/08/09 07:27:30;;;;;;;3.47;2.20;;;;;;;;;;5012808;28;20092;-48
2022/08/09 07:30:00;;;;;;;4.47;1.88;;;;;;;;;;5014174;28;20092;-49
2022/08/09 07:32:27;;;;;;;4.30;1.90;;;;;;;;;;5016951;28;20065;-47
2022/08/09 07:34:57;;;;;;;3.65;1.85;;;;;;;;;;5016900;28;20057;-48
2022/08/09 07:37:24;;;;;;;3.90;1.90;;;;;;;;;;5018917;28;20393;-50
2022/08/09 07:39:51;;;;;;;5.38;1.92;;;;;;;;;;5021685;28;20132;-49
2022/08/09 07:42:22;;;;;;;3.33;1.50;;;;;;;;;;5022629;28;20053;-49
2022/08/09 07:44:52;;;;;;;1.50;1.33;;;;;;;;;;5035508;28;20064;-47
2022/08/09 07:47:20;;;;;;;3.78;1.80;;;;;;;;;;5014396;28;20084;-46
2022/08/09 07:49:46;;;;;;;2.58;1.40;;;;;;;;;;5008275;28;20069;-46
2022/08/09 07:52:21;;;;;;;2.75;1.50;;;;;;;;;;5015314;28;20364;-46
2022/08/09 07:54:49;;;;;;;3.80;1.45;;;;;;;;;;5025106;28;20053;-50
2022/08/09 07:57:17;;;;;;;3.65;1.55;;;;;;;;;;5027438;28;20053;-47
2022/08/09 07:59:47;;;;;;;17.00;2.63;;;;;;;;;;5023217;28;20119;-46
2022/08/09 08:02:14;;;;;;;3.35;1.40;;;;;;;;;;5011888;28;20135;-49
2022/08/09 08:04:41;;;;;;;7.18;1.90;;;;;;;;;;5013557;28;20058;-47
2022/08/09 08:07:09;;;;;;;2.08;1.52;;;;;;;;;;5006509;28;20050;-45
2022/08/09 08:09:39;;;;;;;3.33;1.55;;;;;;;;;;5003023;28;20054;-50
2022/08/09 08:12:09;;;;;;;2.80;1.38;;;;;;;;;;5007396;28;20425;-49
2022/08/09 08:14:37;;;;;;;2.42;1.40;;;;;;;;;;5003202;28;20050;-50
2022/08/09 08:17:07;;;;;;;3.30;1.67;;;;;;;;;;5004808;28;20055;-50
2022/08/09 08:19:36;;;;;;;3.03;1.98;;;;;;;;;;5011768;28;20058;-50
2022/08/09 08:22:04;;;;;;;3.13;1.55;;;;;;;;;;5008762;28;20056;-50
2022/08/09 08:24:34;;;;;;;2.67;1.58;;;;;;;;;;5015639;28;20064;-50
2022/08/09 08:27:14;;;;;;;1.70;1.35;;;;;;;;;;5003172;28;20100;-49
2022/08/09 08:29:41;;;;;;;1.88;1.45;;;;;;;;;;5011011;28;20054;-49
2022/08/09 08:32:11;;;;;;;2.63;1.48;;;;;;;;;;5008627;28;20064;-50
2022/08/09 08:34:38;;;;;;;3.25;1.70;;;;;;;;;;5015450;28;20057;-48
2022/08/09 08:37:05;;;;;;;3.83;1.58;;;;;;;;;;5005064;28;20054;-49
2022/08/09 08:39:35;;;;;;;5.40;1.90;;;;;;;;;;5009293;28;20054;-48
2022/08/09 08:42:08;;;;;;;2.00;1.20;;;;;;;;;;5007662;28;20464;-49
2022/08/09 08:44:36;;;;;;;3.30;1.50;;;;;;;;;;5009832;28;20054;-50
2022/08/09 08:47:04;;;;;;;1.98;1.40;;;;;;;;;;5013450;28;20057;-50
2022/08/09 08:49:36;;;;;;;6.18;1.80;;;;;;;;;;5002630;28;20053;-47
2022/08/09 08:52:05;;;;;;;2.03;1.35;;;;;;;;;;5006877;28;20177;-49
2022/08/09 08:54:34;;;;;;;4.43;1.58;;;;;;;;;;5004256;28;20100;-50
2022/08/09 08:57:02;;;;;;;3.40;1.20;;;;;;;;;;5002659;28;20054;-47
2022/08/09 08:59:37;;;;;;;3.92;1.50;;;;;;;;;;5006980;28;20054;-48
2022/08/09 09:02:08;;;;;;;5.10;1.80;;;;;;;;;;5008749;28;20093;-46
2022/08/09 09:04:35;;;;;;;4.25;1.80;;;;;;;;;;5012223;28;20085;-48
2022/08/09 09:07:08;;;;;;;4.93;1.60;;;;;;;;;;5015410;28;20046;-50
2022/08/09 09:09:38;;;;;;;3.30;2.00;;;;;;;;;;5017642;28;20389;-49
2022/08/09 09:12:08;;;;;;;2.03;1.25;;;;;;;;;;5013853;28;20064;-50
2022/08/09 09:14:44;;;;;;;11.00;2.05;;;;;;;;;;5004066;28;20147;-50
2022/08/09 09:17:14;;;;;;;4.72;1.70;;;;;;;;;;5002147;28;20063;-50
2022/08/09 09:19:45;;;;;;;2.78;1.58;;;;;;;;;;5019912;28;20080;-49
2022/08/09 09:22:13;;;;;;;2.20;1.35;;;;;;;;;;5014853;28;20078;-48
2022/08/09 09:24:40;;;;;;;11.27;2.03;;;;;;;;;;5006833;28;20062;-49
2022/08/09 09:27:09;;;;;;;5.68;1.73;;;;;;;;;;5021671;28;20562;-49
2022/08/09 09:29:45;;;;;;;35.33;4.35;;;;;;;;;;5023331;28;20060;-45
2022/08/09 09:32:20;;;;;;;6.38;1.90;;;;;;;;;;5022848;28;20080;-49
2022/08/09 09:35:01;;;;;;;2.20;1.55;;;;;;;;;;5023530;28;20053;-45
2022/08/09 09:37:29;;;;;;;20.85;2.78;;;;;;;;;;5034199;28;20046;-45
2022/08/09 09:39:57;;;;;;;4.38;1.48;;;;;;;;;;5034007;28;20507;-45
2022/08/09 09:42:33;;;;;;;3.45;1.55;;;;;;;;;;5034105;28;20096;-45
2022/08/09 09:45:05;;;;;;;2.42;1.42;;;;;;;;;;5033327;28;20053;-46
2022/08/09 09:47:34;;;;;;;6.13;1.75;;;;;;;;;;5014532;28;20046;-45
2022/08/09 09:50:09;;;;;;;3.05;1.73;;;;;;;;;;5025711;28;20057;-47
2022/08/09 09:52:48;;;;;;;3.92;1.60;;;;;;;;;;5025093;28;20056;-45
2022/08/09 09:55:18;;;;;;;4.40;1.63;;;;;;;;;;5015414;28;20730;-45
2022/08/09 09:57:58;;;;;;;4.60;2.10;;;;;;;;;;5022803;28;20053;-46
2022/08/09 10:00:29;;;;;;;7.15;2.28;;;;;;;;;;5023979;28;20133;-48
2022/08/09 10:02:56;;;;;;;5.22;1.75;;;;;;;;;;5012336;28;20054;-49
2022/08/09 10:05:25;;;;;;;5.68;1.77;;;;;;;;;;5012671;28;20049;-49
2022/08/09 10:08:04;;;;;;;3.45;1.23;;;;;;;;;;5012729;28;20089;-44
2022/08/09 10:13:11;;;;;;;3.03;1.70;;;;;;;;;;5012234;28;20482;-44
2022/08/09 10:15:59;;;;;;;4.32;1.67;;;;;;;;;;5012301;28;20077;-45
2022/08/09 10:18:28;;;;;;;4.00;1.88;;;;;;;;;;5014059;28;20061;-49
2022/08/09 10:21:05;;;;;;;4.50;1.40;;;;;;;;;;5003172;28;20062;-49
2022/08/09 10:23:34;;;;;;;1.95;1.50;;;;;;;;;;5007794;28;20046;-49
2022/08/09 10:26:03;;;;;;;3.53;1.55;;;;;;;;;;5013073;28;20401;-49
2022/08/09 10:28:34;;;;;;;4.43;1.67;;;;;;;;;;5013489;28;20053;-48
2022/08/09 10:31:10;;;;;;;3.70;1.48;;;;;;;;;;5018308;28;20408;-49
2022/08/09 10:33:37;;;;;;;4.20;1.80;;;;;;;;;;5018924;28;20373;-48
2022/08/09 10:36:06;;;;;;;3.10;1.60;;;;;;;;;;5026726;28;20136;-49
2022/08/09 10:38:35;;;;;;;5.15;1.80;;;;;;;;;;5023752;28;20060;-49
2022/08/09 10:41:02;;;;;;;4.45;1.58;;;;;;;;;;5014941;28;20140;-46
2022/08/09 10:43:30;;;;;;;2.75;1.40;;;;;;;;;;5020302;28;20050;-48
2022/08/09 10:46:04;;;;;;;3.45;1.55;;;;;;;;;;5015894;28;20079;-49
2022/08/09 10:48:32;;;;;;;;;;;;;;;;;;5008532;28;20050;-48
2022/08/09 10:51:18;;;;;;;3.72;1.40;;;;;;;;;;5014032;28;19929;-50
2022/08/09 10:53:54;;;;;;;3.95;1.48;;;;;;;;;;5013903;28;20048;-48
2022/08/09 10:56:22;;;;;;;8.30;1.55;;;;;;;;;;5023578;28;20054;-47
2022/08/09 10:58:49;;;;;;;3.63;1.30;;;;;;;;;;5013752;28;20058;-47
2022/08/09 11:01:37;;;;;;;3.50;1.70;;;;;;;;;;5000499;28;20100;-51
2022/08/09 11:04:12;;;;;;;2.60;1.40;;;;;;;;;;5023936;28;20119;-46
2022/08/09 11:06:49;;;;;;;2.35;1.40;;;;;;;;;;5017930;28;20054;-44
2022/08/09 11:09:22;;;;;;;4.50;1.52;;;;;;;;;;5013963;28;20112;-44
2022/08/09 11:12:08;;;;;;;3.40;1.70;;;;;;;;;;4999123;28;20050;-47
2022/08/09 11:14:40;;;;;;;2.22;1.50;;;;;;;;;;5014244;28;20141;-45
2022/08/09 11:17:28;;;;;;;3.85;1.13;;;;;;;;;;5017629;28;20061;-44
2022/08/09 11:19:58;;;;;;;6.18;1.65;;;;;;;;;;5004414;28;20054;-46
2022/08/09 11:23:01;;;;;;;2.83;1.20;;;;;;;;;;5016643;28;20069;-46
2022/08/09 11:25:50;;;;;;;2.97;1.38;;;;;;;;;;5018287;28;20069;-50
2022/08/09 11:28:39;;;;;;;2.05;1.23;;;;;;;;;;5015945;28;20504;-45
2022/08/09 11:31:25;;;;;;;5.18;1.73;;;;;;;;;;5014205;28;20064;-45
2022/08/09 11:34:02;;;;;;;2.38;1.35;;;;;;;;;;4998023;28;20042;-45
2022/08/09 11:36:39;;;;;;;2.03;1.40;;;;;;;;;;5028044;28;20116;-45
2022/08/09 11:39:09;;;;;;;3.47;1.45;;;;;;;;;;5003672;28;20061;-45
2022/08/09 11:41:39;;;;;;;1.65;1.33;;;;;;;;;;5016851;28;20057;-44
2022/08/09 11:44:16;;;;;;;2.22;1.30;;;;;;;;;;5003651;28;20153;-45
2022/08/09 11:46:54;;;;;;;11.82;2.58;;;;;;;;;;5006007;28;20050;-44
2022/08/09 11:49:38;;;;;;;6.50;1.98;;;;;;;;;;5006692;28;20046;-45
2022/08/09 11:52:06;;;;;;;4.80;1.67;;;;;;;;;;5004328;28;20072;-46
2022/08/09 11:54:34;;;;;;;2.63;1.50;;;;;;;;;;5006124;28;20053;-47
2022/08/09 11:57:21;;;;;;;4.65;1.65;;;;;;;;;;5003600;28;20475;-46
2022/08/09 11:59:50;;;;;;;8.02;2.13;;;;;;;;;;5006294;28;20060;-47
2022/08/09 12:02:20;;;;;;;2.95;1.45;;;;;;;;;;5003805;28;20045;-44
2022/08/09 12:04:53;;;;;;;3.80;1.55;;;;;;;;;;5003713;28;20519;-45
2022/08/09 12:07:27;;;;;;;2.47;1.40;;;;;;;;;;5010798;28;20057;-46
2022/08/09 12:09:55;;;;;;;2.65;1.70;;;;;;;;;;5010722;28;20382;-45
2022/08/09 12:12:25;;;;;;;2.63;1.30;;;;;;;;;;5012867;28;20100;-45
2022/08/09 12:15:19;;;;;;;4.28;1.73;;;;;;;;;;5007596;28;20054;-45
2022/08/09 12:17:48;;;;;;;2.30;1.40;;;;;;;;;;5014734;28;20056;-45
2022/08/09 12:20:17;;;;;;;5.05;1.77;;;;;;;;;;5030441;28;20064;-45
2022/08/09 12:22:45;;;;;;;2.88;1.50;;;;;;;;;;5021236;28;20485;-46
2022/08/09 12:25:16;;;;;;;7.00;2.00;;;;;;;;;;5016901;28;20057;-47
2022/08/09 12:27:42;;;;;;;2.38;1.40;;;;;;;;;;5023540;28;20081;-45
2022/08/09 12:30:16;;;;;;;3.80;1.65;;;;;;;;;;5011847;28;20060;-46
2022/08/09 12:32:44;;;;;;;4.47;1.60;;;;;;;;;;5016175;28;20533;-44
2022/08/09 12:35:14;;;;;;;4.90;1.75;;;;;;;;;;5021021;28;20084;-45
2022/08/09 12:37:44;;;;;;;32.97;4.18;;;;;;;;;;5024863;28;20053;-47
2022/08/09 12:40:11;;;;;;;5.90;1.73;;;;;;;;;;5020114;28;20050;-45
2022/08/09 12:42:51;;;;;;;5.20;1.70;;;;;;;;;;5017025;28;20057;-45
2022/08/09 12:45:33;;;;;;;2.78;1.52;;;;;;;;;;5019937;28;20049;-45
2022/08/09 12:48:03;;;;;;;6.65;1.40;;;;;;;;;;5020075;28;20092;-45
2022/08/09 12:50:30;;;;;;;3.50;1.52;;;;;;;;;;5020125;28;20073;-45
2022/08/09 12:53:00;;;;;;;4.80;1.67;;;;;;;;;;5018052;28;20053;-47
2022/08/09 12:55:30;;;;;;;2.92;1.60;;;;;;;;;;5015781;28;20058;-47
2022/08/09 12:57:59;;;;;;;4.30;1.67;;;;;;;;;;5008851;28;20053;-46
2022/08/09 13:00:33;;;;;;;6.25;1.48;;;;;;;;;;5013840;28;20065;-44
2022/08/09 13:03:01;;;;;;;3.05;1.58;;;;;;;;;;5007889;28;20532;-44
2022/08/09 13:05:42;;;;;;;6.50;1.92;;;;;;;;;;5027798;28;20645;-47
2022/08/09 13:08:13;;;;;;;5.47;1.90;;;;;;;;;;5020263;28;20085;-46
2022/08/09 13:10:49;;;;;;;17.45;3.85;;;;;;;;;;5007730;28;20073;-46
2022/08/09 13:13:29;;;;;;;6.93;1.80;;;;;;;;;;5028863;28;20137;-45
2022/08/09 13:16:00;;;;;;;7.18;2.65;;;;;;;;;;5015360;28;20046;-48
2022/08/09 13:18:27;;;;;;;4.05;1.58;;;;;;;;;;5019320;28;20064;-46
2022/08/09 13:20:55;;;;;;;4.45;1.67;;;;;;;;;;5014981;28;20050;-46
2022/08/09 13:23:37;;;;;;;6.35;1.85;;;;;;;;;;5023376;28;20046;-46
2022/08/09 13:26:04;;;;;;;4.03;2.08;;;;;;;;;;5015402;28;20053;-46
2022/08/09 13:28:32;;;;;;;3.13;1.50;;;;;;;;;;5024208;28;20057;-45
2022/08/09 13:31:20;;;;;;;2.83;1.40;;;;;;;;;;5014414;28;20129;-44
2022/08/09 13:33:49;;;;;;;6.85;1.70;;;;;;;;;;5008148;28;20065;-44
2022/08/09 13:36:16;;;;;;;2.45;1.45;;;;;;;;;;5008594;28;20054;-46
2022/08/09 13:38:46;;;;;;;3.85;1.40;;;;;;;;;;5003031;28;20045;-47
2022/08/09 13:41:20;;;;;;;4.40;1.80;;;;;;;;;;5013707;28;20054;-45
2022/08/09 13:43:49;;;;;;;4.88;2.20;;;;;;;;;;5003796;28;20054;-44
2022/08/09 13:46:30;;;;;;;5.05;1.75;;;;;;;;;;5009610;28;20069;-45
2022/08/09 13:48:58;;;;;;;3.75;1.50;;;;;;;;;;4999822;28;20053;-45
2022/08/09 13:51:28;;;;;;;7.32;1.55;;;;;;;;;;5020442;28;20058;-43
2022/08/09 13:53:58;;;;;;;1.92;1.25;;;;;;;;;;5026600;28;20104;-45
2022/08/09 13:56:28;;;;;;;6.88;1.73;;;;;;;;;;5018360;28;20057;-45
2022/08/09 13:58:56;;;;;;;5.20;1.80;;;;;;;;;;5030550;28;20615;-43
2022/08/09 14:01:39;;;;;;;3.65;1.30;;;;;;;;;;5024671;28;20556;-46
2022/08/09 14:04:07;;;;;;;2.70;1.52;;;;;;;;;;5023859;28;20131;-43
2022/08/09 14:06:36;;;;;;;4.75;1.33;;;;;;;;;;5031601;28;20049;-46
2022/08/09 14:09:07;;;;;;;6.65;1.38;;;;;;;;;;5023744;28;20049;-44
2022/08/09 14:11:35;;;;;;;4.45;1.60;;;;;;;;;;5018418;28;20137;-47
2022/08/09 14:14:05;;;;;;;4.70;1.88;;;;;;;;;;5029997;28;20052;-46
2022/08/09 14:16:35;;;;;;;6.38;2.15;;;;;;;;;;5027103;28;20054;-46
2022/08/09 14:19:05;;;;;;;14.68;1.88;;;;;;;;;;5020967;28;20133;-45
2022/08/09 14:21:34;;;;;;;3.67;1.73;;;;;;;;;;5015493;28;20069;-48
2022/08/09 14:24:05;;;;;;;8.98;1.75;;;;;;;;;;5019500;28;20119;-48
2022/08/09 14:26:34;;;;;;;3.17;1.77;;;;;;;;;;5029064;28;20429;-46
2022/08/09 14:29:04;;;;;;;11.75;1.70;;;;;;;;;;5022017;28;20049;-45
2022/08/09 14:31:46;;;;;;;4.13;1.83;;;;;;;;;;5025185;28;20064;-44
2022/08/09 14:34:13;;;;;;;4.47;1.67;;;;;;;;;;5020925;28;20462;-46
2022/08/09 14:36:43;;;;;;;5.63;1.75;;;;;;;;;;5020253;28;20045;-46
2022/08/09 14:39:13;;;;;;;4.40;1.65;;;;;;;;;;5019152;28;20060;-44
2022/08/09 14:41:39;;;;;;;5.90;1.73;;;;;;;;;;5015958;28;20054;-44
2022/08/09 14:44:09;;;;;;;4.15;1.85;;;;;;;;;;5022441;28;20045;-45
2022/08/09 14:46:39;;;;;;;5.05;2.20;;;;;;;;;;5015817;28;20457;-45
2022/08/09 14:49:09;;;;;;;5.53;1.77;;;;;;;;;;5017559;28;20045;-47
2022/08/09 14:51:37;;;;;;;5.65;1.83;;;;;;;;;;5008755;28;20494;-44
2022/08/09 14:54:04;;;;;;;3.22;1.65;;;;;;;;;;5029834;28;20045;-47
2022/08/09 14:56:32;;;;;;;4.30;1.70;;;;;;;;;;5021661;28;20049;-45
2022/08/09 14:59:02;;;;;;;3.88;1.50;;;;;;;;;;5019138;28;20054;-45
2022/08/09 15:01:30;;;;;;;3.17;1.60;;;;;;;;;;5013487;28;20061;-46
2022/08/09 15:04:00;;;;;;;6.18;1.85;;;;;;;;;;5018985;28;20492;-46
2022/08/09 15:06:28;;;;;;;6.85;1.80;;;;;;;;;;5015720;28;20057;-45
2022/08/09 15:08:58;;;;;;;6.72;1.65;;;;;;;;;;5015953;28;20054;-44
2022/08/09 15:11:28;;;;;;;22.20;3.53;;;;;;;;;;5015557;28;20057;-47
2022/08/09 15:13:55;;;;;;;5.55;1.92;;;;;;;;;;5010693;28;20049;-47
2022/08/09 15:16:24;;;;;;;5.45;1.92;;;;;;;;;;5013384;28;20050;-45